Time;durP1;ratioP1;P1;durP2;ratioP2;P2;SDS_P1;SDS_P2;PMS_P1;PMS_P2;Temp;Humidity;BMP_temperature;BMP_pressure;BME280_temperature;BME280_humidity;BME280_pressure;Samples;Min_cycle;Max_cycle;Signal;HPM_P1;HPM_P2
2021/08/22 00:00:58;;;;;;;;;4.75;4.00;;;;;19.51;71.21;101480.06;4951149;28;45353;-72
2021/08/22 00:03:24;;;;;;;;;4.00;4.00;;;;;19.54;71.39;101480.53;4961033;28;46283;-70
2021/08/22 00:05:49;;;;;;;;;4.00;4.00;;;;;19.59;71.11;101481.84;4941005;28;45437;-71
2021/08/22 00:08:15;;;;;;;;;4.75;4.75;;;;;19.63;71.28;101475.06;4936862;28;45579;-70
2021/08/22 00:10:40;;;;;;;;;5.00;4.50;;;;;19.65;70.75;101468.47;4952860;28;45404;-66
2021/08/22 00:13:05;;;;;;;;;5.75;5.75;;;;;19.68;71.08;101469.97;4945335;28;46070;-68
2021/08/22 00:15:30;;;;;;;;;3.25;3.25;;;;;19.73;71.18;101470.22;4947415;28;45571;-67
2021/08/22 00:17:56;;;;;;;;;5.50;5.00;;;;;19.75;71.98;101468.19;4949528;28;45455;-71
2021/08/22 00:20:22;;;;;;;;;4.00;4.00;;;;;19.72;71.00;101471.25;4953143;28;45659;-67
2021/08/22 00:22:49;;;;;;;;;5.25;5.00;;;;;19.72;70.96;101463.22;4952092;28;46228;-66
2021/08/22 00:25:14;;;;;;;;;5.25;4.50;;;;;19.71;70.69;101466.94;4949622;28;45492;-67
2021/08/22 00:27:40;;;;;;;;;6.25;5.25;;;;;19.71;71.20;101472.28;4950000;28;45578;-67
2021/08/22 00:30:05;;;;;;;;;6.00;6.00;;;;;19.71;71.11;101472.28;4946215;28;45425;-68
2021/08/22 00:32:31;;;;;;;;;8.75;5.25;;;;;19.69;71.25;101469.78;4944809;28;45467;-67
2021/08/22 00:34:56;;;;;;;;;5.00;5.00;;;;;19.69;70.83;101474.34;4953096;28;45625;-68
2021/08/22 00:37:25;;;;;;;;;6.00;5.25;;;;;19.69;71.13;101482.38;4946918;28;45571;-69
2021/08/22 00:39:51;;;;;;;;;5.25;4.75;;;;;19.67;71.02;101471.84;4945570;28;45643;-67
2021/08/22 00:42:16;;;;;;;;;6.75;6.00;;;;;19.67;70.86;101470.97;4949365;28;47088;-68
2021/08/22 00:44:41;;;;;;;;;5.25;5.00;;;;;19.66;70.87;101472.00;4948903;28;45407;-68
2021/08/22 00:47:07;;;;;;;;;9.25;6.75;;;;;19.63;71.38;101473.19;4960772;28;45453;-67
2021/08/22 00:49:33;;;;;;;;;7.25;6.75;;;;;19.65;71.34;101479.19;4949701;28;45370;-72
2021/08/22 00:51:58;;;;;;;;;6.00;6.00;;;;;19.65;71.40;101475.69;4945792;28;46235;-72
2021/08/22 00:54:24;;;;;;;;;6.25;6.25;;;;;19.66;71.40;101475.50;4946369;28;45520;-72
2021/08/22 00:56:51;;;;;;;;;8.50;5.00;;;;;19.67;71.42;101473.66;4945569;28;45935;-72
2021/08/22 00:59:20;;;;;;;;;5.50;5.00;;;;;19.66;71.24;101477.38;4967477;28;45472;-68
2021/08/22 01:01:49;;;;;;;;;6.00;5.50;;;;;19.64;71.43;101469.50;4949303;28;46311;-71
2021/08/22 01:04:27;;;;;;;;;5.75;5.00;;;;;19.65;71.89;101473.84;4951287;28;45464;-68
2021/08/22 01:07:07;;;;;;;;;6.00;6.00;;;;;19.66;71.42;101469.34;4948651;28;45534;-71
2021/08/22 01:09:39;;;;;;;;;7.00;6.00;;;;;19.65;71.23;101471.16;4942690;28;45514;-67
2021/08/22 01:12:16;;;;;;;;;4.50;4.50;;;;;19.67;71.51;101474.50;4952342;28;45637;-68
2021/08/22 01:14:47;;;;;;;;;7.25;5.75;;;;;19.68;71.50;101483.38;4928129;28;45498;-71
2021/08/22 01:17:16;;;;;;;;;7.00;4.75;;;;;19.69;71.50;101479.69;4941450;28;45533;-67
2021/08/22 01:20:11;;;;;;;;;5.75;4.50;;;;;19.71;71.65;101483.03;4950434;28;45784;-71
2021/08/22 01:22:39;;;;;;;;;4.25;4.25;;;;;19.71;71.59;101489.22;4950183;28;46476;-69
2021/08/22 01:25:08;;;;;;;;;5.25;5.25;;;;;19.72;71.96;101485.50;4945898;28;45699;-68
2021/08/22 01:27:38;;;;;;;;;8.50;6.00;;;;;19.72;71.38;101484.66;4951111;28;45421;-71
2021/08/22 01:30:05;;;;;;;;;5.75;4.50;;;;;19.73;71.65;101481.81;4950355;28;45666;-68
2021/08/22 01:32:41;;;;;;;;;9.00;7.00;;;;;19.74;71.39;101488.00;4951147;28;47102;-71
2021/08/22 01:35:10;;;;;;;;;5.75;5.75;;;;;19.74;71.21;101488.00;4948616;28;45695;-67
2021/08/22 01:37:38;;;;;;;;;6.00;5.00;;;;;19.74;71.26;101490.69;4954090;28;45539;-67
2021/08/22 01:40:06;;;;;;;;;7.25;5.75;;;;;19.76;71.22;101499.38;4954573;28;45532;-71
2021/08/22 01:42:34;;;;;;;;;5.00;5.00;;;;;19.75;71.07;101495.00;4947430;28;47372;-70
2021/08/22 01:45:02;;;;;;;;;6.50;5.00;;;;;19.75;71.17;101500.38;4944466;28;45537;-68
2021/08/22 01:47:28;;;;;;;;;8.75;6.00;;;;;19.74;71.41;101498.72;4956799;28;45810;-70
2021/08/22 01:49:54;;;;;;;;;5.75;5.75;;;;;19.74;71.82;101493.34;4941882;28;45420;-69
2021/08/22 01:52:21;;;;;;;;;6.00;5.75;;;;;19.75;71.41;101501.19;4947454;28;46031;-67
2021/08/22 01:54:47;;;;;;;;;6.50;6.50;;;;;19.77;71.14;101501.00;4950490;28;45441;-69
2021/08/22 01:57:12;;;;;;;;;9.50;7.00;;;;;19.77;71.55;101496.47;4957111;28;45442;-70
2021/08/22 01:59:38;;;;;;;;;5.75;5.25;;;;;19.77;71.37;101496.47;4947623;28;45703;-70
2021/08/22 02:02:05;;;;;;;;;6.50;6.00;;;;;19.76;71.08;101494.81;4944866;28;46130;-71
2021/08/22 02:04:46;;;;;;;;;4.50;4.25;;;;;19.75;70.71;101486.97;4952167;28;45483;-68
2021/08/22 02:07:17;;;;;;;;;4.75;4.75;;;;;19.75;70.01;101484.28;4937736;28;45642;-70
2021/08/22 02:09:56;;;;;;;;;4.50;3.75;;;;;19.75;70.00;101486.97;4942659;28;45520;-70
2021/08/22 02:12:22;;;;;;;;;4.00;4.00;;;;;19.75;69.68;101497.69;4945107;28;46049;-69
2021/08/22 02:15:12;;;;;;;;;4.00;4.00;;;;;19.71;69.66;101494.56;4949073;28;45843;-70
2021/08/22 02:17:53;;;;;;;;;5.00;4.00;;;;;19.72;69.42;101500.75;4939777;28;45521;-70
2021/08/22 02:20:20;;;;;;;;;5.50;4.75;;;;;19.70;69.42;101492.06;4943825;28;45631;-69
2021/08/22 02:22:46;;;;;;;;;5.25;4.00;;;;;19.70;69.14;101498.25;4951107;28;46102;-66
2021/08/22 02:25:13;;;;;;;;;4.75;4.75;;;;;19.68;69.20;101499.47;4950597;28;45450;-67
2021/08/22 02:27:39;;;;;;;;;5.00;4.50;;;;;19.67;69.34;101504.00;4954319;28;45389;-66
2021/08/22 02:30:06;;;;;;;;;6.00;4.75;;;;;19.66;69.16;101501.50;4960633;28;45650;-67
2021/08/22 02:32:31;;;;;;;;;4.75;4.75;;;;;19.65;68.82;101500.66;4960441;28;46323;-70
2021/08/22 02:34:56;;;;;;;;;4.25;4.25;;;;;19.63;68.63;101499.19;4952028;28;45415;-68
2021/08/22 02:37:22;;;;;;;;;3.50;3.50;;;;;19.57;68.39;101500.78;4967007;28;45613;-70
2021/08/22 02:39:49;;;;;;;;;5.00;3.00;;;;;19.52;68.21;101506.72;4954636;28;45444;-66
2021/08/22 02:42:17;;;;;;;;;6.25;5.00;;;;;19.48;68.15;101500.06;4949542;28;46204;-67
2021/08/22 02:44:44;;;;;;;;;3.50;3.00;;;;;19.46;68.42;101503.94;4957663;28;45572;-68
2021/08/22 02:47:09;;;;;;;;;3.25;2.25;;;;;19.43;68.36;101505.16;4951750;28;45527;-66
2021/08/22 02:49:35;;;;;;;;;6.00;3.50;;;;;19.42;68.27;101500.00;4952106;28;45629;-69
2021/08/22 02:52:00;;;;;;;;;4.00;4.00;;;;;19.40;68.30;101510.91;4948587;28;47143;-66
2021/08/22 02:54:26;;;;;;;;;5.25;4.50;;;;;19.40;68.05;101508.22;4954111;28;45540;-67
2021/08/22 02:56:51;;;;;;;;;6.25;3.25;;;;;19.40;68.16;101505.53;4953939;28;45595;-67
2021/08/22 02:59:16;;;;;;;;;4.25;3.75;;;;;19.40;67.97;101508.22;4958246;28;45425;-67
2021/08/22 03:01:41;;;;;;;;;5.00;4.00;;;;;19.42;67.82;101502.69;4950838;28;45516;-67
2021/08/22 03:04:07;;;;;;;;;5.00;4.75;;;;;19.41;67.98;101495.66;4949569;28;45575;-71
2021/08/22 03:06:32;;;;;;;;;5.25;3.50;;;;;19.39;68.04;101501.22;4951322;28;45500;-65
2021/08/22 03:08:58;;;;;;;;;5.50;3.25;;;;;19.40;68.17;101494.81;4957099;28;45472;-69
2021/08/22 03:11:23;;;;;;;;;5.00;3.75;;;;;19.40;68.33;101505.53;4951305;28;45561;-68
2021/08/22 03:13:49;;;;;;;;;5.75;4.75;;;;;19.43;68.40;101507.00;4954014;28;45486;-66
2021/08/22 03:16:15;;;;;;;;;6.00;5.75;;;;;19.41;68.39;101507.22;4963585;28;45789;-67
2021/08/22 03:18:41;;;;;;;;;6.00;5.00;;;;;19.39;67.39;101506.56;4926689;28;45509;-69
2021/08/22 03:21:06;;;;;;;;;6.50;4.50;;;;;19.37;66.93;101503.25;4947390;28;51731;-69
2021/08/22 03:23:32;;;;;;;;;4.75;3.00;;;;;19.32;66.70;101500.31;4943970;28;45520;-70
2021/08/22 03:25:57;;;;;;;;;5.00;5.00;;;;;19.30;66.23;101497.81;4952409;28;45385;-67
2021/08/22 03:28:23;;;;;;;;;5.00;5.00;;;;;19.26;66.01;101495.69;4956651;28;45446;-68
2021/08/22 03:30:51;;;;;;;;;5.50;5.25;;;;;19.20;66.10;101499.13;4947397;28;47154;-66
2021/08/22 03:33:19;;;;;;;;;6.25;4.25;;;;;19.15;66.57;101498.88;4953494;28;45663;-67
2021/08/22 03:35:44;;;;;;;;;7.00;5.00;;;;;19.09;66.38;101503.94;4950026;28;45540;-66
2021/08/22 03:38:10;;;;;;;;;3.00;2.50;;;;;19.05;66.36;101493.78;4945198;28;45700;-70
2021/08/22 03:40:35;;;;;;;;;4.00;3.25;;;;;19.02;66.42;101500.34;4959403;28;45944;-66
2021/08/22 03:43:00;;;;;;;;;4.00;3.75;;;;;18.98;66.36;101499.06;4959016;28;45587;-68
2021/08/22 03:45:26;;;;;;;;;5.25;4.50;;;;;18.91;66.54;101507.00;4952442;28;45586;-70
2021/08/22 03:47:51;;;;;;;;;5.00;4.50;;;;;18.89;66.39;101495.66;4944625;28;45414;-67
2021/08/22 03:50:17;;;;;;;;;5.75;4.00;;;;;18.85;66.67;101498.88;4951302;28;47585;-67
2021/08/22 03:52:42;;;;;;;;;7.25;5.75;;;;;18.79;66.48;101513.00;4953335;28;45633;-69
2021/08/22 03:55:08;;;;;;;;;8.50;6.50;;;;;18.73;66.58;101511.03;4950185;28;45671;-66
2021/08/22 03:57:33;;;;;;;;;6.75;4.00;;;;;18.65;67.00;101515.47;4946035;28;45591;-70
2021/08/22 03:59:58;;;;;;;;;8.25;7.50;;;;;18.60;66.58;101520.53;4947560;28;46298;-69
2021/08/22 04:02:24;;;;;;;;;8.00;6.00;;;;;18.53;66.58;101516.09;4947592;28;45667;-67
2021/08/22 04:04:50;;;;;;;;;7.50;7.00;;;;;18.51;67.20;101524.31;4954356;28;45592;-69
2021/08/22 04:07:15;;;;;;;;;4.75;4.00;;;;;18.48;67.22;101522.00;4956909;28;45546;-66
2021/08/22 04:09:40;;;;;;;;;8.50;6.50;;;;;18.45;67.43;101527.72;4948958;28;47537;-66
2021/08/22 04:12:06;;;;;;;;;5.50;5.50;;;;;18.40;67.36;101522.91;4940704;28;49207;-67
2021/08/22 04:14:31;;;;;;;;;8.00;4.75;;;;;18.39;67.26;101525.75;4956362;28;45639;-67
2021/08/22 04:16:57;;;;;;;;;6.75;6.00;;;;;18.38;67.35;101534.81;4961099;28;45476;-68
2021/08/22 04:19:22;;;;;;;;;4.25;4.25;;;;;18.34;67.29;101525.47;4947793;28;54965;-70
2021/08/22 04:21:48;;;;;;;;;10.25;5.00;;;;;18.28;67.62;101521.69;4953736;28;45496;-69
2021/08/22 04:24:13;;;;;;;;;5.00;5.00;;;;;18.25;67.59;101530.09;4944199;28;45629;-68
2021/08/22 04:26:39;;;;;;;;;7.00;6.50;;;;;18.25;67.80;101535.44;4948850;28;45463;-70
2021/08/22 04:29:05;;;;;;;;;6.00;5.25;;;;;18.22;67.47;101533.97;4947534;28;46210;-68
2021/08/22 04:31:30;;;;;;;;;6.25;5.00;;;;;18.22;67.57;101541.97;4940103;28;45466;-67
2021/08/22 04:33:55;;;;;;;;;6.50;5.50;;;;;18.23;67.94;101545.47;4937838;28;45492;-67
2021/08/22 04:36:21;;;;;;;;;5.75;4.75;;;;;18.23;67.42;101537.47;4941203;28;45445;-67
2021/08/22 04:38:46;;;;;;;;;6.00;3.75;;;;;18.22;67.14;101528.59;4940000;28;47076;-67
2021/08/22 04:41:19;;;;;;;;;6.75;5.75;;;;;18.20;67.37;101532.44;4972316;28;45372;-70
2021/08/22 04:43:45;;;;;;;;;8.00;4.50;;;;;18.17;67.33;101527.47;4951532;28;45421;-67
2021/08/22 04:46:10;;;;;;;;;5.75;4.00;;;;;18.14;67.39;101533.19;4948626;28;45401;-69
2021/08/22 04:48:35;;;;;;;;;7.00;5.00;;;;;18.12;67.36;101530.66;4945691;28;45474;-70
2021/08/22 04:51:01;;;;;;;;;4.50;4.50;;;;;18.09;67.62;101539.06;4951758;28;45492;-66
2021/08/22 04:53:26;;;;;;;;;9.75;6.00;;;;;18.07;67.91;101533.06;4963256;28;45499;-67
2021/08/22 04:55:52;;;;;;;;;8.50;6.00;;;;;18.05;67.57;101533.25;4945364;28;45505;-68
2021/08/22 04:58:17;;;;;;;;;8.00;7.00;;;;;18.03;67.67;101537.94;4949778;28;46198;-70
2021/08/22 05:00:42;;;;;;;;;5.25;5.00;;;;;17.99;67.80;101541.97;4945455;28;45560;-68
2021/08/22 05:03:08;;;;;;;;;4.75;4.50;;;;;17.97;68.03;101546.66;4941390;28;50481;-66
2021/08/22 05:05:33;;;;;;;;;6.00;6.00;;;;;17.97;67.91;101541.31;4950574;28;45462;-69
2021/08/22 05:07:58;;;;;;;;;8.00;5.00;;;;;17.95;67.98;101543.38;4951234;28;45676;-70
2021/08/22 05:10:24;;;;;;;;;8.00;7.00;;;;;17.95;68.07;101540.69;4956768;28;45629;-70
2021/08/22 05:12:50;;;;;;;;;4.75;3.25;;;;;17.98;68.14;101551.03;4944451;28;45599;-70
2021/08/22 05:15:15;;;;;;;;;6.25;4.50;;;;;18.01;67.53;101544.47;4943978;28;45496;-70
2021/08/22 05:17:40;;;;;;;;;4.25;4.25;;;;;18.01;67.44;101549.84;4952380;28;46077;-69
2021/08/22 05:20:07;;;;;;;;;5.75;4.75;;;;;18.01;67.22;101553.34;4950540;28;45704;-67
2021/08/22 05:22:32;;;;;;;;;6.00;5.00;;;;;18.00;67.27;101546.34;4960582;28;45515;-67
2021/08/22 05:24:57;;;;;;;;;4.50;3.50;;;;;18.02;67.30;101548.81;4947724;28;45535;-69
2021/08/22 05:27:22;;;;;;;;;7.00;4.75;;;;;18.00;67.25;101556.19;4955638;28;45386;-66
2021/08/22 05:29:48;;;;;;;;;8.00;5.00;;;;;18.02;67.36;101551.47;4950780;28;45444;-67
2021/08/22 05:32:13;;;;;;;;;5.00;5.00;;;;;18.05;67.36;101556.47;4954035;28;45517;-67
2021/08/22 05:34:38;;;;;;;;;5.75;5.25;;;;;18.08;67.35;101544.59;4960217;28;48239;-67
2021/08/22 05:37:04;;;;;;;;;5.50;5.00;;;;;18.10;67.53;101553.25;4943087;28;46466;-69
2021/08/22 05:39:29;;;;;;;;;6.25;4.25;;;;;18.12;67.44;101560.09;4960152;28;45446;-66
2021/08/22 05:41:54;;;;;;;;;5.25;4.75;;;;;18.14;66.83;101560.75;4950514;28;45324;-67
2021/08/22 05:44:20;;;;;;;;;5.00;5.00;;;;;18.17;67.31;101560.38;4950429;28;45988;-68
2021/08/22 05:46:45;;;;;;;;;4.75;4.25;;;;;18.21;67.35;101567.06;4954066;28;51249;-68
2021/08/22 05:49:10;;;;;;;;;4.00;4.00;;;;;18.25;67.18;101557.66;4945016;28;46103;-71
2021/08/22 05:51:36;;;;;;;;;5.00;4.00;;;;;18.30;66.99;101569.66;4945117;28;45492;-67
2021/08/22 05:54:01;;;;;;;;;6.25;5.00;;;;;18.34;67.05;101573.66;4954343;28;45353;-69
2021/08/22 05:56:27;;;;;;;;;6.00;5.00;;;;;18.36;67.09;101574.31;4951415;28;46890;-69
2021/08/22 05:58:52;;;;;;;;;7.00;4.00;;;;;18.39;66.72;101576.63;4975825;28;45559;-67
2021/08/22 06:01:17;;;;;;;;;5.00;4.75;;;;;18.41;66.81;101572.75;4956971;28;45437;-69
2021/08/22 06:03:43;;;;;;;;;7.75;5.00;;;;;18.45;66.74;101575.91;4949796;28;45395;-67
2021/08/22 06:06:08;;;;;;;;;4.50;4.50;;;;;18.48;66.88;101570.19;4935036;28;47094;-65
2021/08/22 06:08:35;;;;;;;;;6.00;4.00;;;;;18.55;67.19;101581.84;4952222;28;45568;-68
2021/08/22 06:11:00;;;;;;;;;3.50;3.50;;;;;18.63;66.80;101581.75;4944759;28;45419;-71
2021/08/22 06:13:26;;;;;;;;;4.50;4.50;;;;;18.71;65.67;101578.16;4956816;28;45542;-68
2021/08/22 06:15:51;;;;;;;;;5.25;4.50;;;;;18.79;66.40;101590.66;4958747;28;45998;-66
2021/08/22 06:18:17;;;;;;;;;5.75;5.75;;;;;18.86;65.78;101595.09;4957557;28;51852;-69
2021/08/22 06:20:46;;;;;;;;;6.25;4.25;;;;;18.92;65.83;101590.88;4949862;28;45447;-66
2021/08/22 06:23:11;;;;;;;;;4.25;3.50;;;;;18.96;65.35;101599.38;4950759;28;45615;-66
2021/08/22 06:25:37;;;;;;;;;2.25;2.25;;;;;18.98;65.58;101600.84;4960490;28;46533;-67
2021/08/22 06:28:02;;;;;;;;;6.75;3.75;;;;;19.00;65.88;101601.50;4940118;28;45454;-67
2021/08/22 06:30:28;;;;;;;;;4.50;4.50;;;;;19.02;65.45;101607.50;4929517;28;45600;-67
2021/08/22 06:32:53;;;;;;;;;5.50;4.50;;;;;19.04;64.87;101602.81;4952254;28;45372;-69
2021/08/22 06:35:18;;;;;;;;;5.75;4.50;;;;;19.09;64.95;101603.06;4962562;28;45435;-66
2021/08/22 06:37:44;;;;;;;;;4.75;4.75;;;;;19.16;65.28;101602.31;4953816;28;45618;-71
2021/08/22 06:40:10;;;;;;;;;5.50;4.25;;;;;19.28;64.96;101608.88;4946513;28;45567;-67
2021/08/22 06:42:35;;;;;;;;;5.75;4.50;;;;;19.40;64.53;101593.16;4936240;28;45781;-71
2021/08/22 06:45:01;;;;;;;;;4.75;4.25;;;;;19.49;64.20;101600.09;4955360;28;46120;-71
2021/08/22 06:47:27;;;;;;;;;7.00;4.00;;;;;19.61;64.02;101603.09;4946286;28;45608;-67
2021/08/22 06:49:52;;;;;;;;;5.00;4.00;;;;;19.72;63.93;101600.81;4955819;28;45506;-68
2021/08/22 06:52:18;;;;;;;;;4.50;3.25;;;;;19.77;63.29;101611.81;4944949;28;46073;-71
2021/08/22 06:54:43;;;;;;;;;3.25;2.00;;;;;19.79;63.36;101616.16;4940994;28;46940;-67
2021/08/22 06:57:11;;;;;;;;;6.75;3.00;;;;;19.78;63.18;101609.94;4943538;28;45445;-71
2021/08/22 06:59:37;;;;;;;;;5.75;4.00;;;;;19.76;63.47;101612.84;4938306;28;46056;-67
2021/08/22 07:02:02;;;;;;;;;5.75;4.75;;;;;19.92;62.93;101614.44;4955448;28;45569;-71
2021/08/22 07:04:27;;;;;;;;;4.50;2.75;;;;;20.14;62.90;101622.50;4950574;28;46017;-71
2021/08/22 07:06:53;;;;;;;;;8.50;5.00;;;;;20.43;62.31;101620.75;4949270;28;45387;-67
2021/08/22 07:09:18;;;;;;;;;5.00;3.00;;;;;20.76;61.87;101616.47;4952646;28;45641;-67
2021/08/22 07:11:44;;;;;;;;;2.75;2.50;;;;;21.01;60.80;101618.72;4948149;28;45515;-67
2021/08/22 07:14:09;;;;;;;;;5.50;4.50;;;;;21.38;60.57;101624.72;4949690;28;46990;-68
2021/08/22 07:16:35;;;;;;;;;3.50;3.50;;;;;21.60;59.69;101623.59;4952547;28;45520;-68
2021/08/22 07:19:01;;;;;;;;;6.00;4.25;;;;;21.87;59.95;101621.84;4953757;28;45405;-72
2021/08/22 07:21:26;;;;;;;;;3.50;3.50;;;;;22.33;58.92;101629.22;4954716;28;45455;-68
2021/08/22 07:23:51;;;;;;;;;5.00;3.00;;;;;22.69;57.37;101624.44;4955366;28;45595;-67
2021/08/22 07:26:17;;;;;;;;;4.50;2.50;;;;;22.62;57.11;101631.69;4955290;28;45449;-67
2021/08/22 07:28:42;;;;;;;;;4.25;4.00;;;;;22.35;56.90;101620.91;4957652;28;45472;-68
2021/08/22 07:31:07;;;;;;;;;4.00;3.50;;;;;22.14;57.60;101631.84;4945172;28;45579;-72
2021/08/22 07:33:34;;;;;;;;;4.00;3.75;;;;;21.94;57.79;101634.50;4949182;28;47074;-67
2021/08/22 07:36:00;;;;;;;;;5.75;3.00;;;;;21.71;57.68;101640.19;4949408;28;45679;-66
2021/08/22 07:38:25;;;;;;;;;4.00;3.00;;;;;21.46;58.13;101638.88;4952385;28;45514;-67
2021/08/22 07:40:51;;;;;;;;;2.50;2.50;;;;;21.29;58.15;101639.34;4950243;28;45519;-66
2021/08/22 07:43:17;;;;;;;;;7.50;4.00;;;;;21.29;58.79;101642.88;4936230;28;47159;-67
2021/08/22 07:45:43;;;;;;;;;4.25;3.00;;;;;21.38;58.52;101640.84;4950402;28;45635;-68
2021/08/22 07:48:09;;;;;;;;;3.75;2.25;;;;;21.42;58.58;101642.16;4956617;28;45460;-68
2021/08/22 07:50:35;;;;;;;;;4.00;2.00;;;;;21.39;58.04;101653.28;4961541;28;45423;-67
2021/08/22 07:53:00;;;;;;;;;2.50;2.50;;;;;21.36;58.12;101645.59;4947419;28;45557;-64
2021/08/22 07:55:26;;;;;;;;;3.50;2.50;;;;;21.30;58.65;101649.09;4948721;28;45496;-65
2021/08/22 07:57:52;;;;;;;;;5.25;4.50;;;;;21.24;57.95;101651.53;4944241;28;45536;-65
2021/08/22 08:00:17;;;;;;;;;2.75;2.75;;;;;21.21;58.72;101648.41;4943805;28;45559;-68
2021/08/22 08:02:43;;;;;;;;;3.25;2.75;;;;;21.24;59.15;101656.91;4944674;28;46049;-67
2021/08/22 08:05:08;;;;;;;;;3.00;3.00;;;;;21.41;58.79;101653.91;4946253;28;45721;-66
2021/08/22 08:07:34;;;;;;;;;4.00;2.75;;;;;21.60;59.05;101653.19;4951607;28;45759;-63
2021/08/22 08:09:59;;;;;;;;;3.75;2.75;;;;;21.82;58.12;101642.31;4945479;28;45701;-64
2021/08/22 08:12:27;;;;;;;;;4.50;2.00;;;;;22.08;57.87;101650.47;4943814;28;45515;-64
2021/08/22 08:14:52;;;;;;;;;2.00;2.00;;;;;22.72;56.50;101651.81;4943825;28;45487;-65
2021/08/22 08:17:18;;;;;;;;;3.00;3.00;;;;;23.45;55.19;101652.75;4946173;28;45475;-68
2021/08/22 08:19:43;;;;;;;;;3.00;3.00;;;;;24.15;53.79;101652.84;4948271;28;45559;-68
2021/08/22 08:22:09;;;;;;;;;5.00;1.75;;;;;24.84;52.57;101657.34;4944555;28;45515;-67
2021/08/22 08:24:35;;;;;;;;;2.75;2.75;;;;;25.75;51.07;101663.03;4939119;28;45567;-64
2021/08/22 08:27:00;;;;;;;;;2.00;2.00;;;;;28.34;48.15;101659.44;4943147;28;45546;-65
2021/08/22 08:29:26;;;;;;;;;1.75;1.50;;;;;29.54;44.79;101659.88;4944976;28;45702;-68
2021/08/22 08:31:51;;;;;;;;;4.00;2.00;;;;;32.50;41.67;101660.91;4951224;28;45922;-64
2021/08/22 08:34:16;;;;;;;;;3.50;2.00;;;;;34.70;38.79;101661.75;4946082;28;47139;-65
2021/08/22 08:36:42;;;;;;;;;1.25;1.25;;;;;35.38;36.54;101668.94;4951919;28;45614;-70
2021/08/22 08:39:07;;;;;;;;;3.00;3.00;;;;;37.68;33.75;101661.41;4949505;28;45599;-65
2021/08/22 08:41:32;;;;;;;;;2.25;2.25;;;;;38.85;30.82;101665.13;4950466;28;47049;-66
2021/08/22 08:43:58;;;;;;;;;2.00;2.00;;;;;40.32;32.30;101669.25;4956491;28;45408;-67
2021/08/22 08:46:27;;;;;;;;;2.00;2.00;;;;;40.05;28.42;101667.66;4952956;28;45591;-66
2021/08/22 08:49:05;;;;;;;;;1.25;1.25;;;;;38.73;29.84;101682.31;4952042;28;45543;-68
2021/08/22 08:51:55;;;;;;;;;1.75;1.00;;;;;36.58;30.92;101687.03;4949628;28;45596;-69
2021/08/22 08:54:42;;;;;;;;;0.50;0.50;;;;;35.62;32.04;101687.38;4945859;28;51378;-66
2021/08/22 08:57:08;;;;;;;;;1.50;0.75;;;;;35.52;31.97;101688.28;4944842;28;45567;-64
2021/08/22 08:59:34;;;;;;;;;1.50;0.00;;;;;36.24;32.45;101687.31;4954549;28;47122;-68
2021/08/22 09:01:59;;;;;;;;;1.00;1.00;;;;;38.59;30.13;101687.91;4959114;28;46925;-63
2021/08/22 09:04:28;;;;;;;;;1.75;1.75;;;;;40.72;26.94;101686.41;4953349;28;45424;-68
2021/08/22 09:07:32;;;;;;;;;1.25;0.00;;;;;39.75;27.49;101675.78;4946554;28;45586;-65
2021/08/22 09:10:16;;;;;;;;;1.00;1.00;;;;;40.70;27.26;101687.88;4948649;28;45688;-68
2021/08/22 09:13:06;;;;;;;;;1.00;0.00;;;;;42.17;25.40;101690.88;4945788;28;47337;-70
2021/08/22 09:15:44;;;;;;;;;0.50;0.00;;;;;41.05;25.28;101691.31;4942809;28;45851;-63
2021/08/22 09:18:28;;;;;;;;;4.75;1.00;;;;;39.59;25.98;101692.00;4946469;28;45532;-69
2021/08/22 09:21:33;;;;;;;;;0.00;0.00;;;;;38.27;26.76;101692.56;4952627;28;45481;-68
2021/08/22 09:24:36;;;;;;;;;0.00;0.00;;;;;36.39;28.85;101690.59;4952467;28;45406;-67
2021/08/22 09:27:17;;;;;;;;;1.00;1.00;;;;;34.79;29.90;101683.88;4951746;28;45567;-68
2021/08/22 09:30:19;;;;;;;;;1.00;0.00;;;;;33.65;31.80;101685.78;4960607;28;45596;-67
2021/08/22 09:33:28;;;;;;;;;0.75;0.75;;;;;33.40;31.96;101689.44;4950213;28;45502;-67
2021/08/22 09:36:02;;;;;;;;;1.75;1.75;;;;;34.29;31.38;101677.75;4950271;28;46350;-69
2021/08/22 09:38:52;;;;;;;;;2.25;1.00;;;;;33.86;31.47;101681.03;4951678;28;45495;-67
2021/08/22 09:41:36;;;;;;;;;4.50;1.00;;;;;32.98;31.98;101676.97;4955731;28;45515;-66
2021/08/22 09:44:38;;;;;;;;;1.00;1.00;;;;;31.73;33.73;101684.53;4957167;28;45528;-68
2021/08/22 09:47:28;;;;;;;;;1.00;0.25;;;;;30.67;35.26;101685.56;4947930;28;45540;-67
2021/08/22 09:50:33;;;;;;;;;1.00;0.75;;;;;29.61;35.92;101693.19;4952374;28;45441;-69
2021/08/22 09:53:35;;;;;;;;;1.00;1.00;;;;;28.55;37.40;101690.56;4952796;28;45832;-67
2021/08/22 09:56:38;;;;;;;;;1.25;1.25;;;;;27.72;39.41;101695.47;4946218;28;45488;-73
2021/08/22 09:59:34;;;;;;;;;2.00;2.00;;;;;27.04;39.71;101695.09;4944854;28;45634;-68
2021/08/22 10:02:44;;;;;;;;;3.00;3.00;;;;;26.24;40.98;101692.81;4944641;28;45490;-66
2021/08/22 10:05:40;;;;;;;;;2.00;1.00;;;;;25.68;42.07;101705.59;4937647;28;45508;-66
2021/08/22 10:08:14;;;;;;;;;1.75;1.25;;;;;25.22;42.60;101709.63;4945146;28;46637;-68
2021/08/22 10:10:50;;;;;;;;;1.00;1.00;;;;;24.83;43.84;101709.75;4946240;28;45876;-68
2021/08/22 10:13:16;;;;;;;;;2.75;1.50;;;;;24.53;44.70;101709.56;4943521;28;45509;-68
2021/08/22 10:15:43;;;;;;;;;0.00;0.00;;;;;24.34;46.03;101708.63;4940023;28;45895;-62
2021/08/22 10:18:09;;;;;;;;;2.75;1.25;;;;;24.23;45.85;101717.41;4944454;28;45516;-66
2021/08/22 10:20:43;;;;;;;;;1.00;1.00;;;;;24.20;46.40;101715.13;4938468;28;45677;-70
2021/08/22 10:23:49;;;;;;;;;3.00;1.00;;;;;24.23;47.02;101714.69;4941720;28;45578;-70
2021/08/22 10:26:48;;;;;;;;;1.00;1.00;;;;;24.45;47.37;101701.69;4863622;29;45623;-69
2021/08/22 10:29:23;;;;;;;;;3.00;1.50;;;;;24.95;47.04;101701.75;4865815;29;45618;-70
2021/08/22 10:31:49;;;;;;;;;3.00;2.00;;;;;25.75;46.54;101698.22;4867330;29;45561;-71
2021/08/22 10:34:14;;;;;;;;;0.25;0.25;;;;;26.47;44.37;101692.06;4865457;29;45549;-71
2021/08/22 10:36:40;;;;;;;;;0.50;0.00;;;;;27.12;43.02;101697.44;4863890;29;45706;-69
2021/08/22 10:39:26;;;;;;;;;1.00;1.00;;;;;27.60;41.17;101690.91;4864296;29;45685;-69
2021/08/22 10:41:52;;;;;;;;;0.00;0.00;;;;;28.12;40.91;101698.22;4856400;29;45603;-66
2021/08/22 10:44:33;;;;;;;;;1.25;0.00;;;;;28.65;40.21;101690.72;4855533;29;45552;-68
2021/08/22 10:47:09;;;;;;;;;0.25;0.00;;;;;28.94;39.41;101691.44;4859809;29;45705;-65
2021/08/22 10:49:50;;;;;;;;;0.00;0.00;;;;;29.31;39.76;101697.16;4858115;29;45615;-70
2021/08/22 10:52:34;;;;;;;;;0.00;0.00;;;;;29.56;39.18;101691.22;4860106;29;47257;-65
2021/08/22 10:55:14;;;;;;;;;0.00;0.00;;;;;29.66;38.30;101696.00;4859966;29;45563;-65
2021/08/22 10:57:43;;;;;;;;;1.00;1.00;;;;;29.95;37.01;101687.63;4917216;28;45624;-65
2021/08/22 11:00:27;;;;;;;;;1.25;1.25;;;;;30.40;38.15;101691.91;4921973;28;46039;-65
2021/08/22 11:03:03;;;;;;;;;1.00;0.50;;;;;31.38;36.84;101694.22;4935005;28;46203;-66
2021/08/22 11:05:32;;;;;;;;;5.25;1.75;;;;;31.64;35.53;101695.16;4926616;28;45627;-68
2021/08/22 11:08:18;;;;;;;;;0.25;0.25;;;;;32.03;36.10;101694.75;4938575;28;45493;-68
2021/08/22 11:11:04;;;;;;;;;0.00;0.00;;;;;32.64;36.17;101690.44;4936186;28;45662;-65
2021/08/22 11:13:37;;;;;;;;;0.00;0.00;;;;;33.43;34.27;101683.41;4943250;28;45670;-68
2021/08/22 11:16:06;;;;;;;;;0.00;0.00;;;;;33.77;33.94;101683.53;4935036;28;45496;-69
2021/08/22 11:18:33;;;;;;;;;0.00;0.00;;;;;33.43;33.30;101675.19;4937823;28;45651;-70
2021/08/22 11:20:58;;;;;;;;;0.00;0.00;;;;;33.36;33.65;101678.25;4940380;28;45548;-65
2021/08/22 11:23:25;;;;;;;;;0.00;0.00;;;;;33.45;33.31;101675.72;4936533;28;46157;-66
2021/08/22 11:26:08;;;;;;;;;0.00;0.00;;;;;33.31;32.85;101675.53;4943933;28;45509;-66
2021/08/22 11:28:34;;;;;;;;;0.00;0.00;;;;;33.32;33.92;101681.81;4936951;28;45537;-70
2021/08/22 11:31:00;;;;;;;;;0.00;0.00;;;;;33.53;33.60;101677.06;4938365;28;45479;-66
2021/08/22 11:33:29;;;;;;;;;0.00;0.00;;;;;33.64;33.04;101675.94;4935978;28;46204;-70
2021/08/22 11:35:55;;;;;;;;;1.50;0.00;;;;;34.27;33.30;101675.28;4937314;28;45530;-69